Time;durP1;ratioP1;P1;durP2;ratioP2;P2;SDS_P1;SDS_P2;PMS_P1;PMS_P2;Temp;Humidity;BMP_temperature;BMP_pressure;BME280_temperature;BME280_humidity;BME280_pressure;Samples;Min_cycle;Max_cycle;Signal;HPM_P1;HPM_P2
2021/08/09 00:00:04;;;;;;;2.03;1.60;;;;;;;17.64;57.26;101114.94;682782;28;60145;-63
2021/08/09 00:00:31;;;;;;;1.70;1.60;;;;;;;17.62;57.37;101126.06;682115;28;60711;-62
2021/08/09 00:00:53;;;;;;;2.15;1.60;;;;;;;17.60;57.41;101119.13;683802;28;22563;-62
2021/08/09 00:01:14;;;;;;;1.85;1.70;;;;;;;17.58;57.34;101115.78;683069;28;39089;-61
2021/08/09 00:01:36;;;;;;;2.67;1.60;;;;;;;17.57;57.33;101114.09;684347;28;13895;-62
2021/08/09 00:01:57;;;;;;;1.83;1.50;;;;;;;17.56;57.58;101117.91;684305;28;23055;-62
2021/08/09 00:02:18;;;;;;;2.28;1.58;;;;;;;17.56;57.54;101109.72;685035;28;1950;-62
2021/08/09 00:02:40;;;;;;;2.28;1.55;;;;;;;17.55;57.67;101108.84;684092;28;22476;-62
2021/08/09 00:03:01;;;;;;;1.58;1.48;;;;;;;17.56;57.69;101115.19;683262;28;46373;-62
2021/08/09 00:03:22;;;;;;;3.35;1.60;;;;;;;17.54;57.58;101106.34;684358;28;23215;-63
2021/08/09 00:03:43;;;;;;;1.95;1.60;;;;;;;17.52;57.67;101103.00;683795;28;23240;-63
2021/08/09 00:04:05;;;;;;;2.58;1.80;;;;;;;17.55;57.78;101114.31;682919;28;22437;-62
2021/08/09 00:04:26;;;;;;;1.65;1.55;;;;;;;17.54;57.71;101115.38;681260;28;69482;-63
2021/08/09 00:04:48;;;;;;;2.20;1.60;;;;;;;17.54;57.59;101106.34;682702;28;22447;-62
2021/08/09 00:05:09;;;;;;;1.70;1.60;;;;;;;17.53;57.53;101113.69;682755;28;23433;-63
2021/08/09 00:05:31;;;;;;;1.60;1.50;;;;;;;17.52;57.88;101103.81;682714;28;38822;-61
2021/08/09 00:05:52;;;;;;;2.03;1.40;;;;;;;17.51;57.70;101110.34;682369;28;45291;-63
2021/08/09 00:06:13;;;;;;;4.28;1.60;;;;;;;17.48;57.72;101108.88;684079;28;23436;-63
2021/08/09 00:06:35;;;;;;;3.10;1.60;;;;;;;17.50;57.77;101111.41;684244;28;21727;-63
2021/08/09 00:06:57;;;;;;;2.00;1.50;;;;;;;17.48;57.70;101110.78;683461;28;46292;-62
2021/08/09 00:07:19;;;;;;;1.50;1.40;;;;;;;17.48;57.96;101114.34;684593;28;11151;-62
2021/08/09 00:07:40;;;;;;;1.67;1.58;;;;;;;17.50;57.92;101110.56;683978;28;28527;-62
2021/08/09 00:08:02;;;;;;;2.47;1.67;;;;;;;17.48;57.86;101116.25;684608;28;6169;-62
2021/08/09 00:08:23;;;;;;;1.83;1.60;;;;;;;17.48;57.90;101110.78;683456;28;45259;-63
2021/08/09 00:08:44;;;;;;;2.22;1.30;;;;;;;17.48;57.83;101116.25;684346;28;20226;-62
2021/08/09 00:09:06;;;;;;;1.73;1.50;;;;;;;17.47;58.09;101117.28;684217;28;14624;-62
2021/08/09 00:09:29;;;;;;;2.10;1.42;;;;;;;17.46;58.05;101116.47;682174;28;69491;-62
2021/08/09 00:09:50;;;;;;;2.08;1.63;;;;;;;17.47;58.16;101120.00;683279;28;46312;-60
2021/08/09 00:10:11;;;;;;;2.97;1.80;;;;;;;17.47;57.94;101111.81;683459;28;23406;-62
2021/08/09 00:10:32;;;;;;;2.42;1.63;;;;;;;17.46;58.21;101113.72;684239;28;20603;-62
2021/08/09 00:10:54;;;;;;;2.17;1.75;;;;;;;17.45;58.38;101117.50;684076;28;23426;-62
2021/08/09 00:11:15;;;;;;;2.42;1.50;;;;;;;17.46;57.93;101118.31;683566;28;26097;-62
2021/08/09 00:11:36;;;;;;;1.70;1.60;;;;;;;17.44;58.15;101123.16;684238;28;21360;-62
2021/08/09 00:11:58;;;;;;;3.38;1.63;;;;;;;17.45;58.05;101117.50;684844;28;1017;-62
2021/08/09 00:12:20;;;;;;;4.15;1.60;;;;;;;17.44;58.24;101114.97;683973;28;23298;-63
2021/08/09 00:12:45;;;;;;;1.60;1.50;;;;;;;17.46;58.05;101123.78;682734;28;60860;-62
2021/08/09 00:13:07;;;;;;;1.88;1.60;;;;;;;17.45;58.19;101127.59;684342;28;15224;-63
2021/08/09 00:13:28;;;;;;;1.80;1.70;;;;;;;17.43;58.20;101122.34;684229;28;21658;-63
2021/08/09 00:13:49;;;;;;;4.20;1.70;;;;;;;17.42;57.99;101131.56;683913;28;24331;-63
2021/08/09 00:14:11;;;;;;;1.70;1.60;;;;;;;17.41;58.47;101126.31;683992;28;15975;-62
2021/08/09 00:14:38;;;;;;;1.80;1.60;;;;;;;17.41;58.37;101123.59;683012;28;61011;-60
2021/08/09 00:15:00;;;;;;;2.25;1.60;;;;;;;17.41;58.09;101123.59;681723;28;92252;-63
2021/08/09 00:15:22;;;;;;;1.88;1.55;;;;;;;17.40;58.34;101125.50;684991;28;862;-63
2021/08/09 00:15:50;;;;;;;2.40;1.60;;;;;;;17.39;58.27;101131.16;682442;28;61972;-62
2021/08/09 00:16:11;;;;;;;2.95;1.70;;;;;;;17.37;58.51;101127.81;684120;28;20888;-63
2021/08/09 00:16:33;;;;;;;2.90;1.55;;;;;;;17.36;58.49;101126.13;684989;28;869;-62
2021/08/09 00:16:54;;;;;;;2.95;1.67;;;;;;;17.35;58.48;101125.31;683422;28;41868;-63
2021/08/09 00:17:15;;;;;;;2.10;1.67;;;;;;;17.33;58.79;101123.84;684466;28;23817;-62
2021/08/09 00:17:37;;;;;;;1.80;1.70;;;;;;;17.31;58.71;101129.50;683964;28;20266;-62
2021/08/09 00:17:58;;;;;;;1.70;1.60;;;;;;;17.32;58.70;101133.91;683497;28;45929;-61
2021/08/09 00:18:25;;;;;;;2.40;1.70;;;;;;;17.29;58.59;101137.91;683739;28;37348;-62
2021/08/09 00:18:47;;;;;;;1.77;1.60;;;;;;;17.28;58.56;101130.75;682495;28;70500;-62
2021/08/09 00:19:09;;;;;;;1.70;1.60;;;;;;;17.28;58.76;101130.75;682600;28;64362;-62
2021/08/09 00:19:38;;;;;;;1.58;1.48;;;;;;;17.25;58.74;101133.06;682712;28;61513;-61
2021/08/09 00:20:01;;;;;;;1.60;1.50;;;;;;;17.24;58.91;101132.25;684673;28;915;-62
2021/08/09 00:20:23;;;;;;;2.30;1.48;;;;;;;17.25;58.93;101135.81;684674;28;914;-61
2021/08/09 00:20:46;;;;;;;4.65;1.50;;;;;;;17.25;58.94;101124.88;684143;28;14544;-63
2021/08/09 00:21:07;;;;;;;4.25;1.75;;;;;;;17.24;58.85;101131.38;683585;28;22609;-63
2021/08/09 00:21:29;;;;;;;2.92;1.50;;;;;;;17.24;58.91;101125.94;683760;28;31752;-62
2021/08/09 00:21:51;;;;;;;1.73;1.50;;;;;;;17.23;58.83;101133.28;683258;28;45255;-63
2021/08/09 00:22:12;;;;;;;1.70;1.60;;;;;;;17.24;58.95;101128.66;684483;28;20214;-62
2021/08/09 00:22:35;;;;;;;1.48;1.48;;;;;;;17.24;58.78;101125.94;684001;28;21060;-62
2021/08/09 00:22:56;;;;;;;1.40;1.30;;;;;;;17.22;59.11;101125.31;681845;28;92330;-62
2021/08/09 00:23:18;;;;;;;2.28;1.33;;;;;;;17.21;59.06;101121.75;683387;28;22187;-63
2021/08/09 00:23:39;;;;;;;3.15;1.70;;;;;;;17.21;59.19;101127.22;683895;28;18769;-62
2021/08/09 00:24:01;;;;;;;2.22;1.70;;;;;;;17.20;58.96;101124.69;683968;28;22423;-62
2021/08/09 00:24:22;;;;;;;2.75;1.50;;;;;;;17.20;59.06;101127.41;683223;28;43813;-62
2021/08/09 00:24:43;;;;;;;2.67;1.40;;;;;;;17.18;58.95;101124.91;683930;28;22381;-62
2021/08/09 00:25:05;;;;;;;1.48;1.40;;;;;;;17.17;59.19;101130.56;684772;28;2746;-62
2021/08/09 00:25:26;;;;;;;2.90;1.60;;;;;;;17.16;59.16;101126.97;682263;28;69183;-62
2021/08/09 00:25:48;;;;;;;2.80;1.70;;;;;;;17.15;59.08;101125.31;683091;28;46387;-63
2021/08/09 00:26:09;;;;;;;2.10;1.60;;;;;;;17.14;59.23;101126.38;682567;28;46297;-61
2021/08/09 00:26:32;;;;;;;1.70;1.50;;;;;;;17.13;59.15;101121.94;684018;28;22412;-62
2021/08/09 00:26:54;;;;;;;2.10;1.58;;;;;;;17.11;59.24;101124.06;682427;28;69391;-62
2021/08/09 00:27:15;;;;;;;1.65;1.55;;;;;;;17.10;59.14;101130.59;683558;28;38877;-62
2021/08/09 00:27:36;;;;;;;1.70;1.55;;;;;;;17.10;59.55;101120.50;683664;28;22516;-62
2021/08/09 00:27:58;;;;;;;2.17;1.60;;;;;;;17.10;59.51;101130.59;683927;28;24266;-62
2021/08/09 00:28:19;;;;;;;1.65;1.55;;;;;;;17.09;59.58;101121.53;682951;28;44331;-63
2021/08/09 00:28:40;;;;;;;1.50;1.45;;;;;;;17.08;59.26;101128.06;684237;28;22428;-62
2021/08/09 00:29:02;;;;;;;1.40;1.40;;;;;;;17.09;59.50;101127.00;683723;28;37447;-62
2021/08/09 00:29:24;;;;;;;1.60;1.50;;;;;;;17.08;59.50;101125.34;684426;28;18985;-62
2021/08/09 00:29:45;;;;;;;1.90;1.73;;;;;;;17.08;59.49;101124.47;683733;28;39065;-62
2021/08/09 00:30:08;;;;;;;1.90;1.70;;;;;;;17.08;59.63;101130.78;684119;28;22383;-62
2021/08/09 00:30:29;;;;;;;1.67;1.58;;;;;;;17.08;59.66;101129.94;682886;28;58505;-62
2021/08/09 00:30:51;;;;;;;1.77;1.67;;;;;;;17.07;59.39;101125.53;683624;28;23521;-62
2021/08/09 00:31:12;;;;;;;1.63;1.52;;;;;;;17.06;59.40;101127.41;680920;28;27930;-63
2021/08/09 00:31:34;;;;;;;1.40;1.30;;;;;;;17.06;59.45;101130.16;681215;29;21486;-63
2021/08/09 00:31:55;;;;;;;1.73;1.48;;;;;;;17.06;59.44;101132.03;680490;29;46412;-62
2021/08/09 00:32:18;;;;;;;1.65;1.50;;;;;;;17.04;59.40;101125.97;681048;29;12790;-62
2021/08/09 00:32:40;;;;;;;2.17;1.50;;;;;;;17.04;59.51;101132.25;677078;29;69000;-62
2021/08/09 00:33:01;;;;;;;1.60;1.50;;;;;;;17.04;59.55;101129.53;679307;29;22177;-63
2021/08/09 00:33:22;;;;;;;1.90;1.40;;;;;;;17.03;59.57;101133.28;679281;29;23505;-62
2021/08/09 00:33:44;;;;;;;3.70;1.70;;;;;;;17.02;59.64;101136.22;680437;28;22472;-62
2021/08/09 00:34:05;;;;;;;2.60;1.58;;;;;;;17.00;59.55;101136.44;680021;29;46585;-62
2021/08/09 00:34:26;;;;;;;1.50;1.40;;;;;;;16.99;59.51;101134.78;680845;28;44421;-63
2021/08/09 00:34:47;;;;;;;3.00;1.67;;;;;;;16.98;59.62;101135.00;684128;28;21184;-61
2021/08/09 00:35:10;;;;;;;2.75;1.75;;;;;;;16.97;59.82;101141.50;684092;28;23404;-62
2021/08/09 00:35:32;;;;;;;1.63;1.48;;;;;;;16.95;59.83;101135.41;682964;28;70235;-60
2021/08/09 00:35:53;;;;;;;1.63;1.53;;;;;;;16.95;59.67;101140.88;683145;28;46323;-62
2021/08/09 00:36:14;;;;;;;1.70;1.60;;;;;;;16.93;59.89;101133.72;679934;29;46503;-61
2021/08/09 00:36:41;;;;;;;1.65;1.60;;;;;;;16.93;59.84;101138.34;675207;29;114643;-62
2021/08/09 00:37:03;;;;;;;1.80;1.50;;;;;;;16.92;59.77;101136.66;677568;29;55876;-62
2021/08/09 00:37:24;;;;;;;1.67;1.38;;;;;;;16.92;60.03;101140.22;677889;29;34874;-62
2021/08/09 00:37:48;;;;;;;1.50;1.40;;;;;;;16.92;60.00;101144.84;676810;29;21551;-62
2021/08/09 00:38:09;;;;;;;1.48;1.40;;;;;;;16.93;59.85;101143.81;677228;29;69291;-62
2021/08/09 00:38:31;;;;;;;1.70;1.60;;;;;;;16.92;60.02;101142.13;674786;29;46403;-62
2021/08/09 00:38:52;;;;;;;1.55;1.50;;;;;;;16.91;59.87;101135.84;677266;29;23140;-62
2021/08/09 00:39:14;;;;;;;1.50;1.40;;;;;;;16.92;59.87;101131.19;679249;29;4080;-62
2021/08/09 00:39:36;;;;;;;1.60;1.50;;;;;;;16.91;59.73;101133.09;675252;29;69499;-61
2021/08/09 00:39:58;;;;;;;1.60;1.60;;;;;;;16.91;59.83;101138.56;674031;29;47941;-63
2021/08/09 00:40:19;;;;;;;2.00;1.80;;;;;;;16.90;59.64;101130.59;675402;29;18178;-62
2021/08/09 00:40:41;;;;;;;1.65;1.55;;;;;;;16.89;59.87;101134.34;677562;29;23203;-63
2021/08/09 00:41:02;;;;;;;1.70;1.40;;;;;;;16.87;60.06;101134.56;675623;29;69454;-62
2021/08/09 00:41:24;;;;;;;1.60;1.50;;;;;;;16.87;59.84;101131.00;675182;29;22191;-62
2021/08/09 00:41:45;;;;;;;1.80;1.70;;;;;;;16.86;59.92;101126.59;676680;29;21547;-62
2021/08/09 00:42:08;;;;;;;1.80;1.70;;;;;;;16.84;60.03;101124.03;676026;29;21518;-62
2021/08/09 00:42:31;;;;;;;2.20;1.77;;;;;;;16.83;60.12;101130.53;673115;29;97937;-62
2021/08/09 00:42:52;;;;;;;2.65;1.80;;;;;;;16.83;59.82;101121.50;676779;29;22412;-62
2021/08/09 00:43:13;;;;;;;2.05;1.75;;;;;;;16.82;60.11;101123.41;679157;29;22353;-62
2021/08/09 00:43:35;;;;;;;1.40;1.40;;;;;;;16.82;60.13;101120.69;679250;29;22444;-62
2021/08/09 00:43:56;;;;;;;1.58;1.48;;;;;;;16.82;60.00;101128.88;677693;29;46235;-62
2021/08/09 00:44:18;;;;;;;2.20;1.60;;;;;;;16.83;60.17;101132.44;678341;28;22326;-63
2021/08/09 00:44:39;;;;;;;1.60;1.50;;;;;;;16.84;60.06;101134.13;675156;29;46261;-62
2021/08/09 00:45:02;;;;;;;3.00;1.50;;;;;;;16.82;59.96;101131.59;675723;29;44340;-62
2021/08/09 00:45:23;;;;;;;2.38;1.60;;;;;;;16.83;60.24;101124.25;675863;29;46439;-62
2021/08/09 00:45:45;;;;;;;1.80;1.70;;;;;;;16.83;59.95;101129.69;675496;29;43919;-62
2021/08/09 00:46:06;;;;;;;2.65;1.48;;;;;;;16.82;59.93;101131.59;674388;29;22080;-62
2021/08/09 00:46:32;;;;;;;1.60;1.50;;;;;;;16.80;60.06;101130.13;672374;29;105880;-62
2021/08/09 00:46:54;;;;;;;3.00;1.65;;;;;;;16.79;60.02;101132.00;676879;29;46860;-62
2021/08/09 00:47:16;;;;;;;1.90;1.63;;;;;;;16.80;59.91;101135.56;675062;29;59414;-62
2021/08/09 00:47:37;;;;;;;1.50;1.48;;;;;;;16.79;60.18;101131.19;677647;29;47504;-62
2021/08/09 00:47:59;;;;;;;2.30;1.50;;;;;;;16.78;60.29;101127.59;677151;29;21516;-63
2021/08/09 00:48:21;;;;;;;1.60;1.50;;;;;;;16.78;60.30;101132.22;676878;29;46380;-63
2021/08/09 00:48:43;;;;;;;2.10;1.42;;;;;;;16.77;60.23;101131.38;681265;29;1710;-62
2021/08/09 00:49:05;;;;;;;1.65;1.40;;;;;;;16.78;60.16;101134.94;679372;29;22740;-62
2021/08/09 00:49:26;;;;;;;1.50;1.40;;;;;;;16.75;59.99;101126.16;678175;29;45263;-62
2021/08/09 00:49:54;;;;;;;1.70;1.60;;;;;;;16.73;60.23;101127.38;676275;29;60815;-62
2021/08/09 00:50:15;;;;;;;1.52;1.42;;;;;;;16.74;60.26;101124.44;676273;29;19935;-62
2021/08/09 00:50:40;;;;;;;2.05;1.40;;;;;;;16.73;60.13;101130.94;672987;29;113373;-62
2021/08/09 00:51:07;;;;;;;1.70;1.60;;;;;;;16.74;60.29;101126.34;676316;29;60603;-62
2021/08/09 00:51:28;;;;;;;1.67;1.58;;;;;;;16.74;60.31;101131.81;675663;29;92336;-62
2021/08/09 00:51:55;;;;;;;2.22;1.60;;;;;;;16.75;60.00;101131.59;675265;29;116017;-63
2021/08/09 00:52:22;;;;;;;1.60;1.50;;;;;;;16.75;60.01;101131.59;677341;29;61707;-62
2021/08/09 00:52:46;;;;;;;1.65;1.50;;;;;;;16.75;60.08;101128.00;671682;29;92282;-62
2021/08/09 00:53:07;;;;;;;1.60;1.50;;;;;;;16.74;59.99;101126.34;673850;29;13781;-62
2021/08/09 00:53:33;;;;;;;1.60;1.50;;;;;;;16.73;59.94;101133.66;675112;29;62313;-62
2021/08/09 00:53:54;;;;;;;1.60;1.50;;;;;;;16.73;60.06;101128.22;676741;29;68487;-62
2021/08/09 00:54:22;;;;;;;1.50;1.45;;;;;;;16.72;60.32;101129.28;677872;29;61709;-62
2021/08/09 00:54:44;;;;;;;1.65;1.40;;;;;;;16.71;60.45;101127.59;679517;29;64452;-61
2021/08/09 00:55:08;;;;;;;1.92;1.50;;;;;;;16.71;60.37;101135.78;680966;29;15002;-62
2021/08/09 00:55:30;;;;;;;2.40;1.50;;;;;;;16.70;60.10;101131.34;678431;29;29176;-61
2021/08/09 00:55:52;;;;;;;2.55;1.70;;;;;;;16.70;60.32;101130.53;675861;29;17358;-63
2021/08/09 00:56:15;;;;;;;1.95;1.52;;;;;;;16.69;60.25;101129.69;673882;29;65122;-62
2021/08/09 00:56:38;;;;;;;1.60;1.50;;;;;;;16.69;60.06;101126.97;672828;29;101685;-63
2021/08/09 00:57:00;;;;;;;1.70;1.45;;;;;;;16.70;60.12;101127.81;674719;29;46189;-62
2021/08/09 00:57:24;;;;;;;2.55;1.35;;;;;;;16.69;60.34;101126.97;675618;29;39571;-62
2021/08/09 00:57:45;;;;;;;1.98;1.60;;;;;;;16.70;60.38;101133.25;677825;29;65424;-62
2021/08/09 00:58:09;;;;;;;3.17;1.50;;;;;;;16.68;60.21;101127.19;678442;29;66786;-63
2021/08/09 00:58:33;;;;;;;2.20;1.35;;;;;;;16.67;60.21;101120.88;678680;29;68386;-62
2021/08/09 00:58:54;;;;;;;1.90;1.40;;;;;;;16.67;60.18;101125.50;677468;29;69301;-62
2021/08/09 00:59:16;;;;;;;1.73;1.55;;;;;;;16.66;60.40;101126.53;678458;29;40154;-63
2021/08/09 00:59:37;;;;;;;1.60;1.40;;;;;;;16.67;60.35;101125.50;679339;29;13882;-62
2021/08/09 01:00:01;;;;;;;2.03;1.50;;;;;;;16.65;60.10;101127.59;680010;29;21512;-62
2021/08/09 01:00:24;;;;;;;1.70;1.40;;;;;;;16.66;60.52;101129.25;676269;29;138059;-63
2021/08/09 01:00:47;;;;;;;1.70;1.50;;;;;;;16.63;60.45;101127.81;678658;29;36427;-62
2021/08/09 01:01:09;;;;;;;1.60;1.50;;;;;;;16.63;60.28;101126.94;677001;29;41819;-62
2021/08/09 01:01:30;;;;;;;1.30;1.30;;;;;;;16.62;60.27;101128.00;675870;29;46398;-61
2021/08/09 01:01:55;;;;;;;1.58;1.48;;;;;;;16.60;60.56;101120.03;675919;29;105749;-62
2021/08/09 01:02:19;;;;;;;1.88;1.60;;;;;;;16.61;60.63;101126.31;676707;29;46303;-63
2021/08/09 01:02:41;;;;;;;2.60;1.60;;;;;;;16.60;60.56;101125.50;676798;29;67400;-62
2021/08/09 01:03:03;;;;;;;2.70;1.50;;;;;;;16.61;60.57;101123.59;674301;29;44420;-63
2021/08/09 01:03:25;;;;;;;1.50;1.40;;;;;;;16.60;60.47;101127.34;676605;29;44438;-62
2021/08/09 01:03:46;;;;;;;2.80;1.40;;;;;;;16.60;60.54;101127.34;677139;29;24421;-63
2021/08/09 01:04:10;;;;;;;2.55;1.48;;;;;;;16.58;60.37;101127.56;677572;29;3656;-62
2021/08/09 01:04:34;;;;;;;2.58;1.67;;;;;;;16.57;60.43;101140.38;675352;29;136482;-62
2021/08/09 01:04:55;;;;;;;1.50;1.40;;;;;;;16.57;60.38;101139.53;679147;28;46442;-62
2021/08/09 01:05:17;;;;;;;2.00;1.42;;;;;;;16.57;60.68;101134.09;680415;29;43725;-62
2021/08/09 01:05:48;;;;;;;3.00;1.45;;;;;;;16.55;60.48;101131.56;675534;29;113086;-62
2021/08/09 01:06:11;;;;;;;1.70;1.60;;;;;;;16.52;60.52;101131.97;674169;29;160897;-62
2021/08/09 01:06:32;;;;;;;1.70;1.60;;;;;;;16.52;60.76;101131.97;678569;29;69882;-63
2021/08/09 01:06:57;;;;;;;1.88;1.50;;;;;;;16.52;60.55;101133.84;677809;29;44460;-62
2021/08/09 01:07:19;;;;;;;1.58;1.48;;;;;;;16.51;60.72;101137.63;677486;29;67324;-62
2021/08/09 01:07:50;;;;;;;1.48;1.40;;;;;;;16.51;60.63;101135.75;678567;29;69447;-63
2021/08/09 01:08:18;;;;;;;1.58;1.52;;;;;;;16.51;60.87;101132.19;676134;29;137898;-62
2021/08/09 01:08:52;;;;;;;1.67;1.58;;;;;;;16.50;60.57;101138.69;677152;28;137682;-63
2021/08/09 01:09:17;;;;;;;1.58;1.48;;;;;;;16.51;60.79;101140.38;676739;29;117850;-62
2021/08/09 01:09:46;;;;;;;1.20;1.20;;;;;;;16.49;60.75;101146.03;673496;29;138764;-62
2021/08/09 01:10:13;;;;;;;1.42;1.40;;;;;;;16.48;60.72;101146.22;673931;29;161976;-63
2021/08/09 01:10:39;;;;;;;1.60;1.50;;;;;;;16.46;61.00;101146.44;676478;29;135737;-62
2021/08/09 01:11:07;;;;;;;1.60;1.42;;;;;;;16.44;60.77;101145.81;677031;29;138482;-62
2021/08/09 01:11:42;;;;;;;1.60;1.50;;;;;;;16.42;61.08;101150.59;679135;28;137691;-63
2021/08/09 01:12:15;;;;;;;3.15;1.73;;;;;;;16.40;61.07;101152.72;679690;28;138102;-62
2021/08/09 01:12:43;;;;;;;1.50;1.50;;;;;;;16.38;60.92;101144.72;677818;28;138921;-62
2021/08/09 01:13:08;;;;;;;1.70;1.52;;;;;;;16.37;60.87;101145.78;675146;29;136426;-62
2021/08/09 01:13:35;;;;;;;1.50;1.40;;;;;;;16.36;60.96;101138.66;672636;29;138201;-62
2021/08/09 01:14:02;;;;;;;1.20;1.20;;;;;;;16.36;61.02;101145.97;671593;29;136273;-62
2021/08/09 01:14:51;;;;;;;2.03;1.60;;;;;;;16.34;61.27;101148.06;675445;29;138605;-62
2021/08/09 01:15:18;;;;;;;1.67;1.40;;;;;;;16.32;61.05;101140.09;679237;28;135415;-62
2021/08/09 01:15:44;;;;;;;1.70;1.60;;;;;;;16.32;61.02;101142.00;674274;29;159211;-62
2021/08/09 01:16:10;;;;;;;1.67;1.58;;;;;;;16.31;61.20;101140.31;679211;28;93193;-62
2021/08/09 01:16:35;;;;;;;1.70;1.50;;;;;;;16.33;60.98;101141.78;676146;28;114842;-62
2021/08/09 01:16:57;;;;;;;1.50;1.40;;;;;;;16.33;60.93;101147.25;676275;29;115180;-62
2021/08/09 01:17:21;;;;;;;1.70;1.60;;;;;;;16.30;61.09;101142.22;677825;29;69432;-62
2021/08/09 01:17:45;;;;;;;1.70;1.60;;;;;;;16.30;61.40;101144.94;679128;28;88460;-62
2021/08/09 01:18:08;;;;;;;1.50;1.40;;;;;;;16.29;61.10;101145.97;678658;29;92313;-62
2021/08/09 01:18:34;;;;;;;1.60;1.50;;;;;;;16.29;61.30;101143.25;676464;29;91663;-62
2021/08/09 01:18:58;;;;;;;2.45;1.38;;;;;;;16.32;61.28;101142.00;676359;29;93547;-62
2021/08/09 01:19:29;;;;;;;1.38;1.27;;;;;;;16.32;61.22;101142.00;676681;29;76953;-62
2021/08/09 01:20:08;;;;;;;1.48;1.38;;;;;;;16.31;61.27;101149.31;671944;29;136309;-62
2021/08/09 01:20:49;;;;;;;2.63;1.50;;;;;;;16.30;61.28;101144.94;677390;29;124904;-62
2021/08/09 01:21:13;;;;;;;1.52;1.40;;;;;;;16.31;61.13;101143.03;679656;28;137348;-62
2021/08/09 01:21:36;;;;;;;1.60;1.50;;;;;;;16.31;61.20;101145.75;681620;28;70211;-62
2021/08/09 01:22:02;;;;;;;1.33;1.30;;;;;;;16.30;61.21;101141.34;679072;29;70294;-62
2021/08/09 01:22:33;;;;;;;1.75;1.30;;;;;;;16.28;61.28;101141.53;676510;28;138787;-62
2021/08/09 01:23:07;;;;;;;2.05;1.40;;;;;;;16.26;61.13;101145.53;676767;28;137871;-62
2021/08/09 01:23:40;;;;;;;1.42;1.33;;;;;;;16.27;61.32;101139.03;674984;29;135911;-62
2021/08/09 01:24:10;;;;;;;1.88;1.40;;;;;;;16.25;61.36;101144.69;675573;28;131852;-62
2021/08/09 01:24:34;;;;;;;1.70;1.60;;;;;;;16.27;61.28;101155.38;680206;28;136047;-60
2021/08/09 01:25:02;;;;;;;1.40;1.35;;;;;;;16.24;61.12;101150.34;681110;28;115380;-62
2021/08/09 01:25:31;;;;;;;1.70;1.60;;;;;;;16.23;61.29;101148.69;677302;29;138766;-62
2021/08/09 01:25:57;;;;;;;2.30;1.60;;;;;;;16.20;61.46;101148.03;676325;29;136331;-61
2021/08/09 01:26:24;;;;;;;1.60;1.50;;;;;;;16.21;61.33;101151.59;674602;29;138009;-62
2021/08/09 01:26:52;;;;;;;1.70;1.45;;;;;;;16.21;61.51;101149.72;672385;29;138264;-62
2021/08/09 01:27:26;;;;;;;1.50;1.40;;;;;;;16.20;61.57;101149.91;669345;29;136207;-60
2021/08/09 01:27:50;;;;;;;1.40;1.30;;;;;;;16.20;61.64;101150.75;675988;29;61008;-62
2021/08/09 01:28:14;;;;;;;1.40;1.30;;;;;;;16.21;61.48;101147.00;675309;29;107353;-61
2021/08/09 01:28:35;;;;;;;3.30;1.30;;;;;;;16.22;61.37;101156.00;678957;29;26756;-62
2021/08/09 01:28:58;;;;;;;1.45;1.35;;;;;;;16.22;61.65;101150.53;678073;29;43792;-62
2021/08/09 01:29:22;;;;;;;1.40;1.30;;;;;;;16.23;61.63;101152.22;677941;28;69394;-62
2021/08/09 01:29:46;;;;;;;1.88;1.50;;;;;;;16.25;61.48;101144.69;676041;29;89687;-62
2021/08/09 01:30:09;;;;;;;2.05;1.55;;;;;;;16.26;61.46;101149.09;676103;29;55059;-62
2021/08/09 01:30:31;;;;;;;1.40;1.30;;;;;;;16.27;61.48;101155.38;671167;29;93191;-61
2021/08/09 01:30:55;;;;;;;1.45;1.35;;;;;;;16.25;61.15;101146.56;673262;29;47134;-62
2021/08/09 01:31:18;;;;;;;1.73;1.40;;;;;;;16.27;61.19;101147.19;674471;29;70339;-62
2021/08/09 01:31:42;;;;;;;3.45;1.50;;;;;;;16.25;61.29;101152.03;673558;29;67244;-62
2021/08/09 01:32:05;;;;;;;3.20;1.35;;;;;;;16.25;60.98;101149.31;673924;29;115258;-62
2021/08/09 01:32:28;;;;;;;1.50;1.40;;;;;;;16.27;61.18;101150.78;678431;29;67483;-62
2021/08/09 01:32:51;;;;;;;1.92;1.50;;;;;;;16.26;61.11;101151.00;678780;29;67159;-61
2021/08/09 01:33:15;;;;;;;3.90;1.50;;;;;;;16.25;61.26;101144.69;676641;29;92315;-62
2021/08/09 01:33:39;;;;;;;2.58;1.38;;;;;;;16.24;61.06;101150.34;674754;29;69889;-62
2021/08/09 01:34:01;;;;;;;1.60;1.50;;;;;;;16.25;61.10;101154.75;676961;29;115155;-62
2021/08/09 01:34:24;;;;;;;2.47;1.52;;;;;;;16.22;61.15;101150.53;677464;29;47329;-63
2021/08/09 01:34:47;;;;;;;1.48;1.38;;;;;;;16.21;61.25;101155.16;676146;29;92309;-62
2021/08/09 01:35:11;;;;;;;1.33;1.23;;;;;;;16.21;61.23;101155.16;678358;29;44421;-63
2021/08/09 01:35:36;;;;;;;1.30;1.20;;;;;;;16.20;61.30;101150.75;675096;29;138048;-62
2021/08/09 01:35:58;;;;;;;1.42;1.33;;;;;;;16.20;61.05;101155.38;679801;29;45315;-62
2021/08/09 01:36:21;;;;;;;2.28;1.30;;;;;;;16.19;61.09;101159.13;681566;28;69299;-62
2021/08/09 01:36:46;;;;;;;2.67;1.58;;;;;;;16.16;61.13;101154.94;683173;28;44333;-62
2021/08/09 01:37:07;;;;;;;1.92;1.73;;;;;;;16.17;61.39;101159.31;682840;28;115035;-62
2021/08/09 01:37:31;;;;;;;1.42;1.33;;;;;;;16.17;61.36;101159.31;682756;28;92318;-62
2021/08/09 01:37:58;;;;;;;1.38;1.27;;;;;;;16.16;61.04;101154.09;681695;28;21458;-62
2021/08/09 01:38:23;;;;;;;1.48;1.38;;;;;;;16.17;61.10;101150.31;673136;29;136443;-62
2021/08/09 01:38:46;;;;;;;1.75;1.40;;;;;;;16.15;61.07;101161.44;676654;29;54332;-62
2021/08/09 01:39:10;;;;;;;2.15;1.58;;;;;;;16.15;61.35;101155.97;680065;29;58892;-62
2021/08/09 01:39:31;;;;;;;2.63;1.58;;;;;;;16.16;61.49;101154.09;680150;29;59371;-62
2021/08/09 01:39:52;;;;;;;2.75;1.42;;;;;;;16.14;61.23;101159.72;682122;28;44370;-62
2021/08/09 01:40:14;;;;;;;1.50;1.40;;;;;;;16.12;61.62;101156.38;682043;28;44373;-62
2021/08/09 01:40:37;;;;;;;2.00;1.42;;;;;;;16.11;61.38;101160.16;682793;28;8470;-62
2021/08/09 01:40:59;;;;;;;1.50;1.40;;;;;;;16.11;61.26;101162.91;678272;29;67615;-62
2021/08/09 01:41:25;;;;;;;1.67;1.50;;;;;;;16.11;61.45;101160.16;674906;29;137991;-62
2021/08/09 01:41:48;;;;;;;1.40;1.40;;;;;;;16.11;61.29;101162.03;678182;29;44377;-62
2021/08/09 01:42:10;;;;;;;1.55;1.40;;;;;;;16.11;61.30;101172.94;677331;29;68425;-61
2021/08/09 01:42:34;;;;;;;2.43;1.40;;;;;;;16.09;61.58;101169.56;677658;29;69461;-61
2021/08/09 01:42:55;;;;;;;1.80;1.45;;;;;;;16.07;61.65;101172.50;676047;29;67532;-62
2021/08/09 01:43:17;;;;;;;1.45;1.38;;;;;;;16.08;61.63;101167.88;676643;29;44349;-62
2021/08/09 01:43:42;;;;;;;2.33;1.50;;;;;;;16.05;61.45;101163.72;678208;29;46345;-62
2021/08/09 01:44:03;;;;;;;2.03;1.50;;;;;;;16.04;61.64;101172.91;676332;28;90368;-62
2021/08/09 01:44:25;;;;;;;1.50;1.40;;;;;;;16.04;61.58;101168.28;674783;29;44433;-60
2021/08/09 01:44:47;;;;;;;2.65;1.42;;;;;;;16.03;61.69;101163.03;676558;29;46308;-61
2021/08/09 01:45:12;;;;;;;1.33;1.30;;;;;;;16.04;61.77;101164.75;675023;29;67377;-62
2021/08/09 01:45:35;;;;;;;1.50;1.50;;;;;;;16.01;61.47;101168.69;680528;29;15058;-61
2021/08/09 01:45:57;;;;;;;1.70;1.60;;;;;;;16.00;61.52;101172.50;678410;29;70217;-62
2021/08/09 01:46:20;;;;;;;1.35;1.35;;;;;;;16.01;61.48;101171.41;677808;29;46405;-62
2021/08/09 01:46:41;;;;;;;1.77;1.38;;;;;;;16.00;61.80;101167.03;678288;29;44465;-62
2021/08/09 01:47:03;;;;;;;2.38;1.70;;;;;;;16.01;61.89;101168.69;679115;29;44299;-62
2021/08/09 01:47:24;;;;;;;1.65;1.55;;;;;;;16.01;61.75;101167.88;680158;28;21553;-62
2021/08/09 01:47:47;;;;;;;1.42;1.40;;;;;;;16.00;61.94;101171.63;681035;29;34552;-62
2021/08/09 01:48:10;;;;;;;1.50;1.40;;;;;;;16.02;61.64;101167.66;680452;28;90806;-62
2021/08/09 01:48:35;;;;;;;1.40;1.40;;;;;;;16.02;61.99;101169.56;679542;28;115035;-62
2021/08/09 01:48:56;;;;;;;1.90;1.50;;;;;;;16.02;61.79;101164.13;684283;28;21515;-62
2021/08/09 01:49:20;;;;;;;1.92;1.40;;;;;;;16.02;61.88;101170.38;681585;28;42514;-63
2021/08/09 01:49:41;;;;;;;1.50;1.40;;;;;;;16.02;61.67;101167.66;680056;29;70179;-62